sensor_id;sensor_type;location;lat;lon;timestamp;temperature;humidity
9209;DHT22;4639;48.862;9.188;2023-07-29T00:00:45;18.80;99.90
9209;DHT22;4639;48.862;9.188;2023-07-29T00:03:10;18.80;99.90
9209;DHT22;4639;48.862;9.188;2023-07-29T00:05:39;18.80;99.90
9209;DHT22;4639;48.862;9.188;2023-07-29T00:08:05;18.90;99.90
9209;DHT22;4639;48.862;9.188;2023-07-29T00:10:32;18.80;99.90
9209;DHT22;4639;48.862;9.188;2023-07-29T00:12:58;18.80;99.90
9209;DHT22;4639;48.862;9.188;2023-07-29T00:15:23;18.80;99.90
9209;DHT22;4639;48.862;9.188;2023-07-29T00:17:49;18.80;99.90
9209;DHT22;4639;48.862;9.188;2023-07-29T00:20:14;18.70;99.90
9209;DHT22;4639;48.862;9.188;2023-07-29T00:22:40;18.70;99.90
9209;DHT22;4639;48.862;9.188;2023-07-29T00:25:06;18.60;99.90
9209;DHT22;4639;48.862;9.188;2023-07-29T00:27:32;18.50;99.90
9209;DHT22;4639;48.862;9.188;2023-07-29T00:29:58;18.50;99.90
9209;DHT22;4639;48.862;9.188;2023-07-29T00:32:23;18.50;99.90
9209;DHT22;4639;48.862;9.188;2023-07-29T00:34:49;18.60;99.90
9209;DHT22;4639;48.862;9.188;2023-07-29T00:37:14;18.70;99.90
9209;DHT22;4639;48.862;9.188;2023-07-29T00:39:40;18.70;99.90
9209;DHT22;4639;48.862;9.188;2023-07-29T00:42:06;18.60;99.90
9209;DHT22;4639;48.862;9.188;2023-07-29T00:44:31;18.60;99.90
9209;DHT22;4639;48.862;9.188;2023-07-29T00:46:57;18.60;99.90
9209;DHT22;4639;48.862;9.188;2023-07-29T00:49:24;18.60;99.90
9209;DHT22;4639;48.862;9.188;2023-07-29T00:51:50;18.60;99.90
9209;DHT22;4639;48.862;9.188;2023-07-29T00:54:15;18.70;99.90
9209;DHT22;4639;48.862;9.188;2023-07-29T00:56:41;18.70;99.90
9209;DHT22;4639;48.862;9.188;2023-07-29T00:59:07;18.70;99.90
9209;DHT22;4639;48.862;9.188;2023-07-29T01:01:33;19.00;99.90
9209;DHT22;4639;48.862;9.188;2023-07-29T01:03:58;18.70;99.90
9209;DHT22;4639;48.862;9.188;2023-07-29T01:06:40;18.70;99.90
9209;DHT22;4639;48.862;9.188;2023-07-29T01:09:23;18.70;99.90
9209;DHT22;4639;48.862;9.188;2023-07-29T01:12:09;18.70;99.90
9209;DHT22;4639;48.862;9.188;2023-07-29T01:14:47;18.70;99.90
9209;DHT22;4639;48.862;9.188;2023-07-29T01:17:29;18.50;99.90
9209;DHT22;4639;48.862;9.188;2023-07-29T01:20:07;18.70;99.90
9209;DHT22;4639;48.862;9.188;2023-07-29T01:22:34;18.50;99.90
9209;DHT22;4639;48.862;9.188;2023-07-29T01:25:00;18.50;99.90
9209;DHT22;4639;48.862;9.188;2023-07-29T01:27:26;18.50;99.90
9209;DHT22;4639;48.862;9.188;2023-07-29T01:29:53;18.60;99.90
9209;DHT22;4639;48.862;9.188;2023-07-29T01:32:29;18.60;99.90
9209;DHT22;4639;48.862;9.188;2023-07-29T01:35:03;18.60;99.90
9209;DHT22;4639;48.862;9.188;2023-07-29T01:37:32;18.60;99.90
9209;DHT22;4639;48.862;9.188;2023-07-29T01:40:00;18.60;99.90
9209;DHT22;4639;48.862;9.188;2023-07-29T01:42:26;18.50;99.90
9209;DHT22;4639;48.862;9.188;2023-07-29T01:44:52;18.40;99.90
9209;DHT22;4639;48.862;9.188;2023-07-29T01:47:18;18.40;99.90
9209;DHT22;4639;48.862;9.188;2023-07-29T01:49:43;18.40;99.90
9209;DHT22;4639;48.862;9.188;2023-07-29T01:52:09;18.50;99.90
9209;DHT22;4639;48.862;9.188;2023-07-29T01:54:36;18.50;99.90
9209;DHT22;4639;48.862;9.188;2023-07-29T01:57:01;18.40;99.90
9209;DHT22;4639;48.862;9.188;2023-07-29T01:59:27;18.40;99.90
9209;DHT22;4639;48.862;9.188;2023-07-29T02:01:52;18.40;99.90
9209;DHT22;4639;48.862;9.188;2023-07-29T02:04:18;18.40;99.90
9209;DHT22;4639;48.862;9.188;2023-07-29T02:06:43;18.40;99.90
9209;DHT22;4639;48.862;9.188;2023-07-29T02:09:09;18.30;99.90
9209;DHT22;4639;48.862;9.188;2023-07-29T02:11:35;18.30;99.90
9209;DHT22;4639;48.862;9.188;2023-07-29T02:14:00;18.20;99.90
9209;DHT22;4639;48.862;9.188;2023-07-29T02:16:26;18.30;99.90
9209;DHT22;4639;48.862;9.188;2023-07-29T02:18:51;18.30;99.90
9209;DHT22;4639;48.862;9.188;2023-07-29T02:21:17;18.30;99.90
9209;DHT22;4639;48.862;9.188;2023-07-29T02:23:43;18.40;99.90
9209;DHT22;4639;48.862;9.188;2023-07-29T02:26:08;18.40;99.90
9209;DHT22;4639;48.862;9.188;2023-07-29T02:28:34;18.40;99.90
9209;DHT22;4639;48.862;9.188;2023-07-29T02:31:17;18.40;99.90
9209;DHT22;4639;48.862;9.188;2023-07-29T02:33:43;18.40;99.90
9209;DHT22;4639;48.862;9.188;2023-07-29T02:36:09;18.40;99.90
9209;DHT22;4639;48.862;9.188;2023-07-29T02:38:34;18.40;99.90
9209;DHT22;4639;48.862;9.188;2023-07-29T02:41:00;18.50;99.90
9209;DHT22;4639;48.862;9.188;2023-07-29T02:43:25;18.30;99.90
9209;DHT22;4639;48.862;9.188;2023-07-29T02:45:51;18.30;99.90
9209;DHT22;4639;48.862;9.188;2023-07-29T02:48:16;18.30;99.90
9209;DHT22;4639;48.862;9.188;2023-07-29T02:50:42;18.30;99.90
9209;DHT22;4639;48.862;9.188;2023-07-29T02:53:08;18.20;99.90
9209;DHT22;4639;48.862;9.188;2023-07-29T02:55:34;18.20;99.90
9209;DHT22;4639;48.862;9.188;2023-07-29T02:57:59;18.20;99.90
9209;DHT22;4639;48.862;9.188;2023-07-29T03:00:25;18.20;99.90
9209;DHT22;4639;48.862;9.188;2023-07-29T03:02:50;18.20;99.90
9209;DHT22;4639;48.862;9.188;2023-07-29T03:05:16;18.20;99.90
9209;DHT22;4639;48.862;9.188;2023-07-29T03:07:42;18.30;99.90
9209;DHT22;4639;48.862;9.188;2023-07-29T03:10:07;18.20;99.90
9209;DHT22;4639;48.862;9.188;2023-07-29T03:12:33;18.20;99.90
9209;DHT22;4639;48.862;9.188;2023-07-29T03:14:58;18.10;99.90
9209;DHT22;4639;48.862;9.188;2023-07-29T03:17:25;18.10;99.90
9209;DHT22;4639;48.862;9.188;2023-07-29T03:19:51;18.10;99.90
9209;DHT22;4639;48.862;9.188;2023-07-29T03:22:17;18.10;99.90
9209;DHT22;4639;48.862;9.188;2023-07-29T03:24:43;18.20;99.90
9209;DHT22;4639;48.862;9.188;2023-07-29T03:27:08;18.20;99.90
9209;DHT22;4639;48.862;9.188;2023-07-29T03:29:35;18.20;99.90
9209;DHT22;4639;48.862;9.188;2023-07-29T03:32:01;18.20;99.90
9209;DHT22;4639;48.862;9.188;2023-07-29T03:34:26;18.20;99.90
9209;DHT22;4639;48.862;9.188;2023-07-29T03:36:52;18.20;99.90
9209;DHT22;4639;48.862;9.188;2023-07-29T03:39:17;18.30;99.90
9209;DHT22;4639;48.862;9.188;2023-07-29T03:41:43;18.30;99.90
9209;DHT22;4639;48.862;9.188;2023-07-29T03:44:09;18.30;99.90
9209;DHT22;4639;48.862;9.188;2023-07-29T03:46:34;18.40;99.90
9209;DHT22;4639;48.862;9.188;2023-07-29T03:49:00;18.40;99.90
9209;DHT22;4639;48.862;9.188;2023-07-29T03:51:25;18.40;99.90
9209;DHT22;4639;48.862;9.188;2023-07-29T03:53:51;18.40;99.90
9209;DHT22;4639;48.862;9.188;2023-07-29T03:56:16;18.40;99.90
9209;DHT22;4639;48.862;9.188;2023-07-29T03:58:43;18.40;99.90
9209;DHT22;4639;48.862;9.188;2023-07-29T04:01:09;18.50;99.90
9209;DHT22;4639;48.862;9.188;2023-07-29T04:03:35;18.50;99.90
9209;DHT22;4639;48.862;9.188;2023-07-29T04:06:00;18.60;99.90
9209;DHT22;4639;48.862;9.188;2023-07-29T04:08:26;18.60;99.90
9209;DHT22;4639;48.862;9.188;2023-07-29T04:10:52;18.50;99.90
9209;DHT22;4639;48.862;9.188;2023-07-29T04:13:17;18.50;99.90
9209;DHT22;4639;48.862;9.188;2023-07-29T04:15:43;18.50;99.90
9209;DHT22;4639;48.862;9.188;2023-07-29T04:18:09;18.50;99.90
9209;DHT22;4639;48.862;9.188;2023-07-29T04:20:34;18.40;99.90
9209;DHT22;4639;48.862;9.188;2023-07-29T04:23:00;18.40;99.90
9209;DHT22;4639;48.862;9.188;2023-07-29T04:25:25;18.40;99.90
9209;DHT22;4639;48.862;9.188;2023-07-29T04:27:51;18.40;99.90
9209;DHT22;4639;48.862;9.188;2023-07-29T04:30:16;18.40;99.90
9209;DHT22;4639;48.862;9.188;2023-07-29T04:32:42;18.40;99.90
9209;DHT22;4639;48.862;9.188;2023-07-29T04:35:08;18.40;99.90
9209;DHT22;4639;48.862;9.188;2023-07-29T04:37:34;18.40;99.90
9209;DHT22;4639;48.862;9.188;2023-07-29T04:40:00;18.30;99.90
9209;DHT22;4639;48.862;9.188;2023-07-29T04:42:25;18.30;99.90
9209;DHT22;4639;48.862;9.188;2023-07-29T04:44:51;18.30;99.90
9209;DHT22;4639;48.862;9.188;2023-07-29T04:47:16;18.40;99.90
9209;DHT22;4639;48.862;9.188;2023-07-29T04:49:42;18.30;99.90
9209;DHT22;4639;48.862;9.188;2023-07-29T04:52:07;18.30;99.90
9209;DHT22;4639;48.862;9.188;2023-07-29T04:54:33;18.40;99.90
9209;DHT22;4639;48.862;9.188;2023-07-29T04:56:59;18.30;99.90
9209;DHT22;4639;48.862;9.188;2023-07-29T04:59:24;18.40;99.90
9209;DHT22;4639;48.862;9.188;2023-07-29T05:01:50;18.40;99.90
9209;DHT22;4639;48.862;9.188;2023-07-29T05:04:16;18.50;99.90
9209;DHT22;4639;48.862;9.188;2023-07-29T05:06:41;18.70;99.90
9209;DHT22;4639;48.862;9.188;2023-07-29T05:09:18;18.50;99.90
9209;DHT22;4639;48.862;9.188;2023-07-29T05:11:45;18.40;99.90
9209;DHT22;4639;48.862;9.188;2023-07-29T05:14:12;18.40;99.90
9209;DHT22;4639;48.862;9.188;2023-07-29T05:16:38;18.40;99.90
9209;DHT22;4639;48.862;9.188;2023-07-29T05:19:03;18.50;99.90
9209;DHT22;4639;48.862;9.188;2023-07-29T05:21:29;18.40;99.90
9209;DHT22;4639;48.862;9.188;2023-07-29T05:23:55;18.30;99.90
9209;DHT22;4639;48.862;9.188;2023-07-29T05:26:21;18.40;99.90
9209;DHT22;4639;48.862;9.188;2023-07-29T05:28:47;18.50;99.90
9209;DHT22;4639;48.862;9.188;2023-07-29T05:31:12;18.40;99.90
9209;DHT22;4639;48.862;9.188;2023-07-29T05:33:38;18.40;99.90
9209;DHT22;4639;48.862;9.188;2023-07-29T05:36:03;18.50;99.90
9209;DHT22;4639;48.862;9.188;2023-07-29T05:38:30;18.70;99.90
9209;DHT22;4639;48.862;9.188;2023-07-29T05:40:56;18.60;99.90
9209;DHT22;4639;48.862;9.188;2023-07-29T05:43:21;18.60;99.90
9209;DHT22;4639;48.862;9.188;2023-07-29T05:45:47;18.70;99.90
9209;DHT22;4639;48.862;9.188;2023-07-29T05:48:12;18.70;99.90
9209;DHT22;4639;48.862;9.188;2023-07-29T05:50:38;18.70;99.90
9209;DHT22;4639;48.862;9.188;2023-07-29T05:53:03;18.60;99.90
9209;DHT22;4639;48.862;9.188;2023-07-29T05:55:29;18.60;99.90
9209;DHT22;4639;48.862;9.188;2023-07-29T05:57:54;18.70;99.90
9209;DHT22;4639;48.862;9.188;2023-07-29T06:00:20;18.80;99.90
9209;DHT22;4639;48.862;9.188;2023-07-29T06:02:46;18.80;99.90
9209;DHT22;4639;48.862;9.188;2023-07-29T06:05:11;18.80;99.90
9209;DHT22;4639;48.862;9.188;2023-07-29T06:07:37;18.90;99.90
9209;DHT22;4639;48.862;9.188;2023-07-29T06:10:03;19.10;99.90
9209;DHT22;4639;48.862;9.188;2023-07-29T06:12:29;19.20;99.90
9209;DHT22;4639;48.862;9.188;2023-07-29T06:14:54;19.30;99.90
9209;DHT22;4639;48.862;9.188;2023-07-29T06:17:20;19.40;99.90
9209;DHT22;4639;48.862;9.188;2023-07-29T06:19:45;19.50;99.90
9209;DHT22;4639;48.862;9.188;2023-07-29T06:22:11;19.60;99.90
9209;DHT22;4639;48.862;9.188;2023-07-29T06:24:37;19.60;99.90
9209;DHT22;4639;48.862;9.188;2023-07-29T06:27:02;19.60;99.90
9209;DHT22;4639;48.862;9.188;2023-07-29T06:29:28;19.70;99.90
9209;DHT22;4639;48.862;9.188;2023-07-29T06:31:54;19.70;99.90
9209;DHT22;4639;48.862;9.188;2023-07-29T06:34:20;19.80;99.90
9209;DHT22;4639;48.862;9.188;2023-07-29T06:36:45;19.80;99.90
9209;DHT22;4639;48.862;9.188;2023-07-29T06:39:11;19.80;99.90
9209;DHT22;4639;48.862;9.188;2023-07-29T06:41:36;19.80;99.90
9209;DHT22;4639;48.862;9.188;2023-07-29T06:44:02;19.80;99.90
9209;DHT22;4639;48.862;9.188;2023-07-29T06:46:27;19.80;99.90
9209;DHT22;4639;48.862;9.188;2023-07-29T06:48:53;19.80;99.90
9209;DHT22;4639;48.862;9.188;2023-07-29T06:51:18;19.80;99.90
9209;DHT22;4639;48.862;9.188;2023-07-29T06:53:44;19.80;99.90
9209;DHT22;4639;48.862;9.188;2023-07-29T06:56:10;19.80;99.90
9209;DHT22;4639;48.862;9.188;2023-07-29T06:58:35;19.80;99.90
9209;DHT22;4639;48.862;9.188;2023-07-29T07:01:01;19.90;99.90
9209;DHT22;4639;48.862;9.188;2023-07-29T07:03:28;19.90;99.90
9209;DHT22;4639;48.862;9.188;2023-07-29T07:05:54;20.00;99.90
9209;DHT22;4639;48.862;9.188;2023-07-29T07:08:19;20.00;99.90
9209;DHT22;4639;48.862;9.188;2023-07-29T07:10:47;20.00;99.90
9209;DHT22;4639;48.862;9.188;2023-07-29T07:13:12;20.00;99.90
9209;DHT22;4639;48.862;9.188;2023-07-29T07:15:38;20.00;99.90
9209;DHT22;4639;48.862;9.188;2023-07-29T07:18:03;20.00;99.90
9209;DHT22;4639;48.862;9.188;2023-07-29T07:20:29;19.90;99.90
9209;DHT22;4639;48.862;9.188;2023-07-29T07:22:54;19.80;99.90
9209;DHT22;4639;48.862;9.188;2023-07-29T07:25:21;19.90;99.90
9209;DHT22;4639;48.862;9.188;2023-07-29T07:27:46;19.70;99.90
9209;DHT22;4639;48.862;9.188;2023-07-29T07:30:12;19.70;99.90
9209;DHT22;4639;48.862;9.188;2023-07-29T07:32:37;19.70;99.90
9209;DHT22;4639;48.862;9.188;2023-07-29T07:35:03;19.70;99.90
9209;DHT22;4639;48.862;9.188;2023-07-29T07:37:29;20.00;99.90
9209;DHT22;4639;48.862;9.188;2023-07-29T07:39:55;19.90;99.90
9209;DHT22;4639;48.862;9.188;2023-07-29T07:42:20;19.90;99.90
9209;DHT22;4639;48.862;9.188;2023-07-29T07:44:46;20.00;99.90
9209;DHT22;4639;48.862;9.188;2023-07-29T07:47:11;20.00;99.90
9209;DHT22;4639;48.862;9.188;2023-07-29T07:49:37;20.00;99.90
9209;DHT22;4639;48.862;9.188;2023-07-29T07:52:03;20.10;99.90
9209;DHT22;4639;48.862;9.188;2023-07-29T07:54:28;20.20;99.90
9209;DHT22;4639;48.862;9.188;2023-07-29T07:56:54;20.20;99.90
9209;DHT22;4639;48.862;9.188;2023-07-29T07:59:19;20.30;99.90
9209;DHT22;4639;48.862;9.188;2023-07-29T08:01:45;20.20;99.90
9209;DHT22;4639;48.862;9.188;2023-07-29T08:04:10;20.30;99.90
9209;DHT22;4639;48.862;9.188;2023-07-29T08:06:36;20.60;99.90
9209;DHT22;4639;48.862;9.188;2023-07-29T08:09:02;20.50;99.90
9209;DHT22;4639;48.862;9.188;2023-07-29T08:11:28;20.70;99.90
9209;DHT22;4639;48.862;9.188;2023-07-29T08:13:53;20.70;99.90
9209;DHT22;4639;48.862;9.188;2023-07-29T08:16:19;20.70;99.90
9209;DHT22;4639;48.862;9.188;2023-07-29T08:18:44;20.60;99.90
9209;DHT22;4639;48.862;9.188;2023-07-29T08:21:10;20.70;99.90
9209;DHT22;4639;48.862;9.188;2023-07-29T08:23:36;20.80;99.90
9209;DHT22;4639;48.862;9.188;2023-07-29T08:26:04;20.90;99.90
9209;DHT22;4639;48.862;9.188;2023-07-29T08:28:35;21.00;99.90
9209;DHT22;4639;48.862;9.188;2023-07-29T08:31:01;21.10;99.90
9209;DHT22;4639;48.862;9.188;2023-07-29T08:33:28;20.90;99.90
9209;DHT22;4639;48.862;9.188;2023-07-29T08:35:54;20.90;99.90
9209;DHT22;4639;48.862;9.188;2023-07-29T08:38:20;21.00;99.90
9209;DHT22;4639;48.862;9.188;2023-07-29T08:40:52;21.00;99.90
9209;DHT22;4639;48.862;9.188;2023-07-29T08:43:21;21.10;99.90
9209;DHT22;4639;48.862;9.188;2023-07-29T08:45:49;21.10;99.90
9209;DHT22;4639;48.862;9.188;2023-07-29T08:48:19;21.20;99.90
9209;DHT22;4639;48.862;9.188;2023-07-29T08:50:49;21.30;99.90
9209;DHT22;4639;48.862;9.188;2023-07-29T08:53:15;21.50;99.90
9209;DHT22;4639;48.862;9.188;2023-07-29T08:55:41;21.80;99.90
9209;DHT22;4639;48.862;9.188;2023-07-29T08:58:07;22.20;99.90
9209;DHT22;4639;48.862;9.188;2023-07-29T09:00:34;22.60;99.90
9209;DHT22;4639;48.862;9.188;2023-07-29T09:02:59;22.90;99.90
9209;DHT22;4639;48.862;9.188;2023-07-29T09:05:33;23.10;99.90
9209;DHT22;4639;48.862;9.188;2023-07-29T09:07:58;23.20;99.90
9209;DHT22;4639;48.862;9.188;2023-07-29T09:10:26;22.80;99.90
9209;DHT22;4639;48.862;9.188;2023-07-29T09:12:52;22.70;99.90
9209;DHT22;4639;48.862;9.188;2023-07-29T09:15:28;22.60;99.90
9209;DHT22;4639;48.862;9.188;2023-07-29T09:17:54;22.70;99.90
9209;DHT22;4639;48.862;9.188;2023-07-29T09:20:25;22.70;99.90
9209;DHT22;4639;48.862;9.188;2023-07-29T09:22:51;22.70;99.90
9209;DHT22;4639;48.862;9.188;2023-07-29T09:25:23;22.60;99.90
9209;DHT22;4639;48.862;9.188;2023-07-29T09:27:49;22.60;99.90
9209;DHT22;4639;48.862;9.188;2023-07-29T09:30:18;22.80;99.90
9209;DHT22;4639;48.862;9.188;2023-07-29T09:32:43;23.20;99.90
9209;DHT22;4639;48.862;9.188;2023-07-29T09:35:11;23.80;99.90
9209;DHT22;4639;48.862;9.188;2023-07-29T09:37:38;24.10;99.90
9209;DHT22;4639;48.862;9.188;2023-07-29T09:40:05;24.20;99.90
9209;DHT22;4639;48.862;9.188;2023-07-29T09:42:31;24.20;99.90
9209;DHT22;4639;48.862;9.188;2023-07-29T09:44:57;23.90;99.90
9209;DHT22;4639;48.862;9.188;2023-07-29T09:47:24;23.70;99.90
9209;DHT22;4639;48.862;9.188;2023-07-29T09:49:51;23.40;99.90
9209;DHT22;4639;48.862;9.188;2023-07-29T09:52:21;23.40;99.90
9209;DHT22;4639;48.862;9.188;2023-07-29T09:54:47;23.40;99.90
9209;DHT22;4639;48.862;9.188;2023-07-29T09:57:18;23.10;99.90
9209;DHT22;4639;48.862;9.188;2023-07-29T09:59:54;23.10;99.90
9209;DHT22;4639;48.862;9.188;2023-07-29T10:02:20;22.90;99.90
9209;DHT22;4639;48.862;9.188;2023-07-29T10:04:46;22.90;99.90
9209;DHT22;4639;48.862;9.188;2023-07-29T10:07:13;22.90;99.90
9209;DHT22;4639;48.862;9.188;2023-07-29T10:09:40;23.00;99.90
9209;DHT22;4639;48.862;9.188;2023-07-29T10:12:06;22.80;99.90
9209;DHT22;4639;48.862;9.188;2023-07-29T10:14:32;22.70;99.90
9209;DHT22;4639;48.862;9.188;2023-07-29T10:16:58;22.40;99.90
9209;DHT22;4639;48.862;9.188;2023-07-29T10:19:25;22.30;99.90
9209;DHT22;4639;48.862;9.188;2023-07-29T10:21:55;22.60;99.90
9209;DHT22;4639;48.862;9.188;2023-07-29T10:24:25;22.70;99.90
9209;DHT22;4639;48.862;9.188;2023-07-29T10:26:57;22.60;99.90
9209;DHT22;4639;48.862;9.188;2023-07-29T10:29:24;22.40;99.90
9209;DHT22;4639;48.862;9.188;2023-07-29T10:31:54;22.10;99.90
9209;DHT22;4639;48.862;9.188;2023-07-29T10:34:22;21.80;99.90
9209;DHT22;4639;48.862;9.188;2023-07-29T10:36:49;21.80;99.90
9209;DHT22;4639;48.862;9.188;2023-07-29T10:39:15;22.00;99.90
9209;DHT22;4639;48.862;9.188;2023-07-29T10:42:01;22.40;99.90
9209;DHT22;4639;48.862;9.188;2023-07-29T10:47:21;22.90;99.90
9209;DHT22;4639;48.862;9.188;2023-07-29T10:49:53;23.30;99.90
9209;DHT22;4639;48.862;9.188;2023-07-29T10:55:02;24.20;99.90
9209;DHT22;4639;48.862;9.188;2023-07-29T10:57:38;24.10;99.90
9209;DHT22;4639;48.862;9.188;2023-07-29T11:00:08;23.80;99.90
9209;DHT22;4639;48.862;9.188;2023-07-29T11:02:38;23.70;99.90
9209;DHT22;4639;48.862;9.188;2023-07-29T11:05:21;23.70;99.90
9209;DHT22;4639;48.862;9.188;2023-07-29T11:07:48;23.60;99.90
9209;DHT22;4639;48.862;9.188;2023-07-29T11:10:14;23.60;99.90
9209;DHT22;4639;48.862;9.188;2023-07-29T11:12:48;23.50;99.90
9209;DHT22;4639;48.862;9.188;2023-07-29T11:15:19;24.00;99.90
9209;DHT22;4639;48.862;9.188;2023-07-29T11:18:12;24.30;99.90
9209;DHT22;4639;48.862;9.188;2023-07-29T11:20:40;24.70;99.90
9209;DHT22;4639;48.862;9.188;2023-07-29T11:23:06;24.90;99.90
9209;DHT22;4639;48.862;9.188;2023-07-29T11:25:31;24.90;99.90
9209;DHT22;4639;48.862;9.188;2023-07-29T11:27:59;24.40;99.90
9209;DHT22;4639;48.862;9.188;2023-07-29T11:30:25;24.30;99.90
9209;DHT22;4639;48.862;9.188;2023-07-29T11:32:55;24.40;99.90
9209;DHT22;4639;48.862;9.188;2023-07-29T11:35:21;24.10;99.90
9209;DHT22;4639;48.862;9.188;2023-07-29T11:37:51;24.00;99.90
9209;DHT22;4639;48.862;9.188;2023-07-29T11:40:21;24.20;99.90
9209;DHT22;4639;48.862;9.188;2023-07-29T11:42:48;24.30;99.90
9209;DHT22;4639;48.862;9.188;2023-07-29T11:45:18;24.30;99.90
9209;DHT22;4639;48.862;9.188;2023-07-29T11:47:44;24.40;99.90
9209;DHT22;4639;48.862;9.188;2023-07-29T11:50:11;24.00;99.90
9209;DHT22;4639;48.862;9.188;2023-07-29T11:52:41;24.00;99.90
9209;DHT22;4639;48.862;9.188;2023-07-29T11:55:08;24.00;99.90
9209;DHT22;4639;48.862;9.188;2023-07-29T11:57:35;24.20;99.90
9209;DHT22;4639;48.862;9.188;2023-07-29T12:00:05;24.30;99.90
9209;DHT22;4639;48.862;9.188;2023-07-29T12:02:32;24.30;99.90
9209;DHT22;4639;48.862;9.188;2023-07-29T12:04:59;24.40;99.90
9209;DHT22;4639;48.862;9.188;2023-07-29T12:07:25;24.50;99.90
9209;DHT22;4639;48.862;9.188;2023-07-29T12:09:50;24.60;99.90
9209;DHT22;4639;48.862;9.188;2023-07-29T12:12:17;24.80;99.90
9209;DHT22;4639;48.862;9.188;2023-07-29T12:14:45;24.90;99.90
9209;DHT22;4639;48.862;9.188;2023-07-29T12:17:11;25.10;99.90
9209;DHT22;4639;48.862;9.188;2023-07-29T12:19:38;25.40;99.90
9209;DHT22;4639;48.862;9.188;2023-07-29T12:22:06;25.60;99.90
9209;DHT22;4639;48.862;9.188;2023-07-29T12:24:33;25.50;99.90
9209;DHT22;4639;48.862;9.188;2023-07-29T12:26:59;25.30;99.90
9209;DHT22;4639;48.862;9.188;2023-07-29T12:29:25;25.20;99.90
9209;DHT22;4639;48.862;9.188;2023-07-29T12:31:59;25.30;99.90
9209;DHT22;4639;48.862;9.188;2023-07-29T12:34:30;25.30;99.90
9209;DHT22;4639;48.862;9.188;2023-07-29T12:36:57;25.30;99.90
9209;DHT22;4639;48.862;9.188;2023-07-29T12:39:27;25.30;99.90
9209;DHT22;4639;48.862;9.188;2023-07-29T12:41:55;25.20;99.90
9209;DHT22;4639;48.862;9.188;2023-07-29T12:44:23;25.30;99.90
9209;DHT22;4639;48.862;9.188;2023-07-29T12:46:48;25.40;99.90
9209;DHT22;4639;48.862;9.188;2023-07-29T12:49:14;25.50;99.90
9209;DHT22;4639;48.862;9.188;2023-07-29T12:51:40;25.70;99.90
9209;DHT22;4639;48.862;9.188;2023-07-29T12:54:06;26.00;99.90
9209;DHT22;4639;48.862;9.188;2023-07-29T12:56:32;26.00;99.90
9209;DHT22;4639;48.862;9.188;2023-07-29T12:58:58;26.10;99.90
9209;DHT22;4639;48.862;9.188;2023-07-29T13:01:24;26.00;99.90
9209;DHT22;4639;48.862;9.188;2023-07-29T13:03:50;26.10;99.90
9209;DHT22;4639;48.862;9.188;2023-07-29T13:06:15;26.20;99.90
9209;DHT22;4639;48.862;9.188;2023-07-29T13:08:42;26.10;99.90
9209;DHT22;4639;48.862;9.188;2023-07-29T13:11:07;25.90;99.90
9209;DHT22;4639;48.862;9.188;2023-07-29T13:13:33;26.20;99.90
9209;DHT22;4639;48.862;9.188;2023-07-29T13:15:59;26.30;99.90
9209;DHT22;4639;48.862;9.188;2023-07-29T13:18:25;26.40;99.90
9209;DHT22;4639;48.862;9.188;2023-07-29T13:20:50;26.50;99.90
9209;DHT22;4639;48.862;9.188;2023-07-29T13:23:16;26.70;99.90
9209;DHT22;4639;48.862;9.188;2023-07-29T13:25:42;26.70;99.90
9209;DHT22;4639;48.862;9.188;2023-07-29T13:28:09;26.60;99.90
9209;DHT22;4639;48.862;9.188;2023-07-29T13:30:35;26.70;99.90
9209;DHT22;4639;48.862;9.188;2023-07-29T13:33:01;26.80;99.90
9209;DHT22;4639;48.862;9.188;2023-07-29T13:35:27;26.70;99.90
9209;DHT22;4639;48.862;9.188;2023-07-29T13:37:52;26.70;99.90
9209;DHT22;4639;48.862;9.188;2023-07-29T13:40:18;26.30;99.90
9209;DHT22;4639;48.862;9.188;2023-07-29T13:42:43;26.10;99.90
9209;DHT22;4639;48.862;9.188;2023-07-29T13:45:09;26.00;99.90
9209;DHT22;4639;48.862;9.188;2023-07-29T13:47:35;25.90;99.90
9209;DHT22;4639;48.862;9.188;2023-07-29T13:50:01;25.90;99.90
9209;DHT22;4639;48.862;9.188;2023-07-29T13:52:27;25.90;99.90
9209;DHT22;4639;48.862;9.188;2023-07-29T13:54:52;25.90;99.90
9209;DHT22;4639;48.862;9.188;2023-07-29T13:57:18;26.00;99.90
9209;DHT22;4639;48.862;9.188;2023-07-29T13:59:43;26.00;99.90
9209;DHT22;4639;48.862;9.188;2023-07-29T14:02:09;25.90;99.90
9209;DHT22;4639;48.862;9.188;2023-07-29T14:04:34;26.00;99.90
9209;DHT22;4639;48.862;9.188;2023-07-29T14:07:00;26.10;99.90
9209;DHT22;4639;48.862;9.188;2023-07-29T14:09:26;26.20;99.90
9209;DHT22;4639;48.862;9.188;2023-07-29T14:11:54;26.10;99.90
9209;DHT22;4639;48.862;9.188;2023-07-29T14:14:19;25.90;99.90
9209;DHT22;4639;48.862;9.188;2023-07-29T14:16:45;26.10;99.90
9209;DHT22;4639;48.862;9.188;2023-07-29T14:19:11;26.40;99.90
9209;DHT22;4639;48.862;9.188;2023-07-29T14:21:37;26.70;99.90
9209;DHT22;4639;48.862;9.188;2023-07-29T14:24:02;27.00;99.90
9209;DHT22;4639;48.862;9.188;2023-07-29T14:26:28;27.00;99.90
9209;DHT22;4639;48.862;9.188;2023-07-29T14:28:53;26.70;99.90
9209;DHT22;4639;48.862;9.188;2023-07-29T14:31:19;26.60;99.90
9209;DHT22;4639;48.862;9.188;2023-07-29T14:33:45;26.60;99.90
9209;DHT22;4639;48.862;9.188;2023-07-29T14:36:10;26.50;99.90
9209;DHT22;4639;48.862;9.188;2023-07-29T14:38:36;26.40;99.90
9209;DHT22;4639;48.862;9.188;2023-07-29T14:41:03;26.10;99.90
9209;DHT22;4639;48.862;9.188;2023-07-29T14:43:30;25.90;99.90
9209;DHT22;4639;48.862;9.188;2023-07-29T14:45:56;25.70;99.90
9209;DHT22;4639;48.862;9.188;2023-07-29T14:48:22;25.70;99.90
9209;DHT22;4639;48.862;9.188;2023-07-29T14:50:48;25.60;99.90
9209;DHT22;4639;48.862;9.188;2023-07-29T14:53:13;25.60;99.90
9209;DHT22;4639;48.862;9.188;2023-07-29T14:55:39;25.80;99.90
9209;DHT22;4639;48.862;9.188;2023-07-29T14:58:04;26.00;99.90
9209;DHT22;4639;48.862;9.188;2023-07-29T15:00:30;26.00;99.90
9209;DHT22;4639;48.862;9.188;2023-07-29T15:02:56;26.10;99.90
9209;DHT22;4639;48.862;9.188;2023-07-29T15:05:21;26.40;99.90
9209;DHT22;4639;48.862;9.188;2023-07-29T15:07:47;26.40;99.90
9209;DHT22;4639;48.862;9.188;2023-07-29T15:10:16;26.30;99.90
9209;DHT22;4639;48.862;9.188;2023-07-29T15:12:42;26.40;99.90
9209;DHT22;4639;48.862;9.188;2023-07-29T15:15:09;26.30;99.90
9209;DHT22;4639;48.862;9.188;2023-07-29T15:17:34;26.40;99.90
9209;DHT22;4639;48.862;9.188;2023-07-29T15:20:02;26.70;99.90
9209;DHT22;4639;48.862;9.188;2023-07-29T15:22:29;27.10;99.90
9209;DHT22;4639;48.862;9.188;2023-07-29T15:24:54;27.20;99.90
9209;DHT22;4639;48.862;9.188;2023-07-29T15:27:20;26.90;99.90
9209;DHT22;4639;48.862;9.188;2023-07-29T15:29:46;26.50;99.90
9209;DHT22;4639;48.862;9.188;2023-07-29T15:32:11;26.30;99.90
9209;DHT22;4639;48.862;9.188;2023-07-29T15:34:37;26.70;99.90
9209;DHT22;4639;48.862;9.188;2023-07-29T15:37:03;26.60;99.90
9209;DHT22;4639;48.862;9.188;2023-07-29T15:39:29;26.70;99.90
9209;DHT22;4639;48.862;9.188;2023-07-29T15:41:55;26.80;99.90
9209;DHT22;4639;48.862;9.188;2023-07-29T15:44:21;27.20;99.90
9209;DHT22;4639;48.862;9.188;2023-07-29T15:46:47;27.30;99.90
9209;DHT22;4639;48.862;9.188;2023-07-29T15:49:13;27.40;99.90
9209;DHT22;4639;48.862;9.188;2023-07-29T15:51:39;27.40;99.90
9209;DHT22;4639;48.862;9.188;2023-07-29T15:54:05;27.20;99.90
9209;DHT22;4639;48.862;9.188;2023-07-29T15:56:30;27.10;99.90
9209;DHT22;4639;48.862;9.188;2023-07-29T15:58:56;27.00;99.90
9209;DHT22;4639;48.862;9.188;2023-07-29T16:01:22;27.10;99.90
9209;DHT22;4639;48.862;9.188;2023-07-29T16:03:48;26.80;99.90